sensor_id;sensor_type;location;lat;lon;timestamp;P1;durP1;ratioP1;P2;durP2;ratioP2
60700;SDS011;46541;49.894;10.886;2022-08-18T00:02:05;17.75;;;5.30;;
60700;SDS011;46541;49.894;10.886;2022-08-18T00:04:38;6.38;;;4.65;;
60700;SDS011;46541;49.894;10.886;2022-08-18T00:07:19;10.25;;;4.00;;
60700;SDS011;46541;49.894;10.886;2022-08-18T00:09:48;8.38;;;3.78;;
60700;SDS011;46541;49.894;10.886;2022-08-18T00:12:17;7.30;;;4.55;;
60700;SDS011;46541;49.894;10.886;2022-08-18T00:14:47;13.13;;;4.97;;
60700;SDS011;46541;49.894;10.886;2022-08-18T00:17:15;11.02;;;4.40;;
60700;SDS011;46541;49.894;10.886;2022-08-18T00:19:42;12.90;;;3.70;;
60700;SDS011;46541;49.894;10.886;2022-08-18T00:22:14;12.73;;;4.03;;
60700;SDS011;46541;49.894;10.886;2022-08-18T00:24:44;12.45;;;3.90;;
60700;SDS011;46541;49.894;10.886;2022-08-18T00:27:16;9.05;;;4.22;;
60700;SDS011;46541;49.894;10.886;2022-08-18T00:29:48;8.52;;;4.35;;
60700;SDS011;46541;49.894;10.886;2022-08-18T00:32:17;12.85;;;4.57;;
60700;SDS011;46541;49.894;10.886;2022-08-18T00:34:46;11.82;;;4.30;;
60700;SDS011;46541;49.894;10.886;2022-08-18T00:37:13;12.88;;;4.20;;
60700;SDS011;46541;49.894;10.886;2022-08-18T00:39:40;12.98;;;4.45;;
60700;SDS011;46541;49.894;10.886;2022-08-18T00:42:31;12.18;;;4.30;;
60700;SDS011;46541;49.894;10.886;2022-08-18T00:45:00;10.02;;;4.28;;
60700;SDS011;46541;49.894;10.886;2022-08-18T00:47:29;5.93;;;4.10;;
60700;SDS011;46541;49.894;10.886;2022-08-18T00:50:25;14.32;;;4.15;;
60700;SDS011;46541;49.894;10.886;2022-08-18T00:55:55;6.45;;;4.63;;
60700;SDS011;46541;49.894;10.886;2022-08-18T00:58:28;13.32;;;3.92;;
60700;SDS011;46541;49.894;10.886;2022-08-18T01:01:04;7.57;;;3.97;;
60700;SDS011;46541;49.894;10.886;2022-08-18T01:03:33;7.93;;;3.95;;
60700;SDS011;46541;49.894;10.886;2022-08-18T01:06:15;9.93;;;4.30;;
60700;SDS011;46541;49.894;10.886;2022-08-18T01:08:46;10.27;;;4.20;;
60700;SDS011;46541;49.894;10.886;2022-08-18T01:11:13;6.93;;;3.70;;
60700;SDS011;46541;49.894;10.886;2022-08-18T01:13:40;5.30;;;3.45;;
60700;SDS011;46541;49.894;10.886;2022-08-18T01:16:08;10.63;;;4.47;;
60700;SDS011;46541;49.894;10.886;2022-08-18T01:18:53;11.50;;;3.80;;
60700;SDS011;46541;49.894;10.886;2022-08-18T01:21:40;8.00;;;3.90;;
60700;SDS011;46541;49.894;10.886;2022-08-18T01:24:18;8.65;;;3.60;;
60700;SDS011;46541;49.894;10.886;2022-08-18T01:27:08;8.05;;;3.55;;
60700;SDS011;46541;49.894;10.886;2022-08-18T01:29:36;5.45;;;3.45;;
60700;SDS011;46541;49.894;10.886;2022-08-18T01:32:08;7.13;;;3.53;;
60700;SDS011;46541;49.894;10.886;2022-08-18T01:34:37;12.23;;;3.55;;
60700;SDS011;46541;49.894;10.886;2022-08-18T01:37:04;7.10;;;2.88;;
60700;SDS011;46541;49.894;10.886;2022-08-18T01:39:31;3.75;;;2.60;;
60700;SDS011;46541;49.894;10.886;2022-08-18T01:42:18;5.65;;;3.20;;
60700;SDS011;46541;49.894;10.886;2022-08-18T01:44:46;4.82;;;3.40;;
60700;SDS011;46541;49.894;10.886;2022-08-18T01:47:16;3.95;;;3.20;;
60700;SDS011;46541;49.894;10.886;2022-08-18T01:49:45;5.25;;;3.13;;
60700;SDS011;46541;49.894;10.886;2022-08-18T01:52:13;7.57;;;3.22;;
60700;SDS011;46541;49.894;10.886;2022-08-18T01:54:46;6.50;;;3.50;;
60700;SDS011;46541;49.894;10.886;2022-08-18T01:57:14;4.88;;;3.05;;
60700;SDS011;46541;49.894;10.886;2022-08-18T01:59:42;6.30;;;3.25;;
60700;SDS011;46541;49.894;10.886;2022-08-18T02:02:14;7.40;;;3.47;;
60700;SDS011;46541;49.894;10.886;2022-08-18T02:04:44;5.88;;;2.88;;
60700;SDS011;46541;49.894;10.886;2022-08-18T02:07:12;7.18;;;2.97;;
60700;SDS011;46541;49.894;10.886;2022-08-18T02:09:41;6.47;;;3.25;;
60700;SDS011;46541;49.894;10.886;2022-08-18T02:12:09;5.20;;;2.85;;
60700;SDS011;46541;49.894;10.886;2022-08-18T02:14:36;6.60;;;3.40;;
60700;SDS011;46541;49.894;10.886;2022-08-18T02:17:04;3.95;;;3.42;;
60700;SDS011;46541;49.894;10.886;2022-08-18T02:19:33;7.93;;;3.28;;
60700;SDS011;46541;49.894;10.886;2022-08-18T02:22:02;3.55;;;3.20;;
60700;SDS011;46541;49.894;10.886;2022-08-18T02:24:30;4.13;;;3.10;;
60700;SDS011;46541;49.894;10.886;2022-08-18T02:26:57;5.75;;;4.03;;
60700;SDS011;46541;49.894;10.886;2022-08-18T02:29:24;6.13;;;3.15;;
60700;SDS011;46541;49.894;10.886;2022-08-18T02:31:51;4.13;;;3.58;;
60700;SDS011;46541;49.894;10.886;2022-08-18T02:34:18;8.25;;;3.67;;
60700;SDS011;46541;49.894;10.886;2022-08-18T02:36:45;5.03;;;3.25;;
60700;SDS011;46541;49.894;10.886;2022-08-18T02:39:12;4.57;;;3.42;;
60700;SDS011;46541;49.894;10.886;2022-08-18T02:41:38;4.32;;;3.85;;
60700;SDS011;46541;49.894;10.886;2022-08-18T02:44:06;6.03;;;3.47;;
60700;SDS011;46541;49.894;10.886;2022-08-18T02:46:34;4.63;;;3.90;;
60700;SDS011;46541;49.894;10.886;2022-08-18T02:49:02;5.57;;;3.58;;
60700;SDS011;46541;49.894;10.886;2022-08-18T02:51:30;4.93;;;3.15;;
60700;SDS011;46541;49.894;10.886;2022-08-18T02:53:57;5.70;;;3.58;;
60700;SDS011;46541;49.894;10.886;2022-08-18T02:56:26;7.15;;;4.25;;
60700;SDS011;46541;49.894;10.886;2022-08-18T02:59:11;4.50;;;4.03;;
60700;SDS011;46541;49.894;10.886;2022-08-18T03:01:41;5.53;;;4.00;;
60700;SDS011;46541;49.894;10.886;2022-08-18T03:04:11;3.88;;;3.30;;
60700;SDS011;46541;49.894;10.886;2022-08-18T03:06:41;7.00;;;3.72;;
60700;SDS011;46541;49.894;10.886;2022-08-18T03:09:09;6.55;;;4.10;;
60700;SDS011;46541;49.894;10.886;2022-08-18T03:11:37;5.28;;;3.95;;
60700;SDS011;46541;49.894;10.886;2022-08-18T03:14:04;4.43;;;3.70;;
60700;SDS011;46541;49.894;10.886;2022-08-18T03:16:37;6.65;;;3.85;;
60700;SDS011;46541;49.894;10.886;2022-08-18T03:19:19;7.93;;;4.03;;
60700;SDS011;46541;49.894;10.886;2022-08-18T03:21:47;6.38;;;4.45;;
60700;SDS011;46541;49.894;10.886;2022-08-18T03:24:14;6.97;;;3.55;;
60700;SDS011;46541;49.894;10.886;2022-08-18T03:26:48;9.55;;;4.68;;
60700;SDS011;46541;49.894;10.886;2022-08-18T03:29:15;4.85;;;4.10;;
60700;SDS011;46541;49.894;10.886;2022-08-18T03:31:42;4.65;;;3.70;;
60700;SDS011;46541;49.894;10.886;2022-08-18T03:34:10;5.88;;;4.07;;
60700;SDS011;46541;49.894;10.886;2022-08-18T03:36:37;6.10;;;4.20;;
60700;SDS011;46541;49.894;10.886;2022-08-18T03:39:08;5.05;;;4.55;;
60700;SDS011;46541;49.894;10.886;2022-08-18T03:41:38;6.43;;;4.50;;
60700;SDS011;46541;49.894;10.886;2022-08-18T03:44:24;7.07;;;4.07;;
60700;SDS011;46541;49.894;10.886;2022-08-18T03:46:53;6.20;;;4.68;;
60700;SDS011;46541;49.894;10.886;2022-08-18T03:49:20;4.90;;;4.30;;
60700;SDS011;46541;49.894;10.886;2022-08-18T03:51:47;7.63;;;4.55;;
60700;SDS011;46541;49.894;10.886;2022-08-18T03:54:14;6.65;;;4.07;;
60700;SDS011;46541;49.894;10.886;2022-08-18T03:56:43;5.13;;;4.47;;
60700;SDS011;46541;49.894;10.886;2022-08-18T03:59:13;7.13;;;4.70;;
60700;SDS011;46541;49.894;10.886;2022-08-18T04:01:43;4.80;;;4.30;;
60700;SDS011;46541;49.894;10.886;2022-08-18T04:04:13;6.00;;;4.45;;
60700;SDS011;46541;49.894;10.886;2022-08-18T04:06:51;8.45;;;4.35;;
60700;SDS011;46541;49.894;10.886;2022-08-18T04:09:20;6.22;;;4.60;;
60700;SDS011;46541;49.894;10.886;2022-08-18T04:11:49;5.82;;;4.95;;
60700;SDS011;46541;49.894;10.886;2022-08-18T04:14:17;6.75;;;5.00;;
60700;SDS011;46541;49.894;10.886;2022-08-18T04:16:46;6.22;;;4.88;;
60700;SDS011;46541;49.894;10.886;2022-08-18T04:19:17;7.10;;;4.88;;
60700;SDS011;46541;49.894;10.886;2022-08-18T04:21:54;9.32;;;6.07;;
60700;SDS011;46541;49.894;10.886;2022-08-18T04:24:26;7.00;;;5.18;;
60700;SDS011;46541;49.894;10.886;2022-08-18T04:26:58;6.57;;;5.65;;
60700;SDS011;46541;49.894;10.886;2022-08-18T04:29:28;6.75;;;5.93;;
60700;SDS011;46541;49.894;10.886;2022-08-18T04:31:55;7.60;;;5.63;;
60700;SDS011;46541;49.894;10.886;2022-08-18T04:34:22;9.32;;;5.97;;
60700;SDS011;46541;49.894;10.886;2022-08-18T04:36:52;13.73;;;7.35;;
60700;SDS011;46541;49.894;10.886;2022-08-18T04:39:20;8.80;;;7.35;;
60700;SDS011;46541;49.894;10.886;2022-08-18T04:41:47;9.30;;;6.90;;
60700;SDS011;46541;49.894;10.886;2022-08-18T04:44:15;7.43;;;6.70;;
60700;SDS011;46541;49.894;10.886;2022-08-18T04:46:47;9.07;;;7.28;;
60700;SDS011;46541;49.894;10.886;2022-08-18T04:49:17;8.20;;;6.88;;
60700;SDS011;46541;49.894;10.886;2022-08-18T04:51:46;7.20;;;6.47;;
60700;SDS011;46541;49.894;10.886;2022-08-18T04:54:53;10.32;;;6.72;;
60700;SDS011;46541;49.894;10.886;2022-08-18T04:57:20;9.07;;;6.88;;
60700;SDS011;46541;49.894;10.886;2022-08-18T04:59:49;7.47;;;6.68;;
60700;SDS011;46541;49.894;10.886;2022-08-18T05:02:18;7.68;;;6.80;;
60700;SDS011;46541;49.894;10.886;2022-08-18T05:04:45;7.55;;;6.72;;
60700;SDS011;46541;49.894;10.886;2022-08-18T05:07:14;7.57;;;6.50;;
60700;SDS011;46541;49.894;10.886;2022-08-18T05:09:42;12.20;;;6.70;;
60700;SDS011;46541;49.894;10.886;2022-08-18T05:12:13;8.48;;;7.40;;
60700;SDS011;46541;49.894;10.886;2022-08-18T05:14:41;8.02;;;7.22;;
60700;SDS011;46541;49.894;10.886;2022-08-18T05:17:13;10.27;;;6.25;;
60700;SDS011;46541;49.894;10.886;2022-08-18T05:19:41;8.35;;;6.47;;
60700;SDS011;46541;49.894;10.886;2022-08-18T05:22:10;16.00;;;7.68;;
60700;SDS011;46541;49.894;10.886;2022-08-18T05:24:41;7.32;;;6.63;;
60700;SDS011;46541;49.894;10.886;2022-08-18T05:27:07;8.18;;;7.00;;
60700;SDS011;46541;49.894;10.886;2022-08-18T05:29:34;11.55;;;7.15;;
60700;SDS011;46541;49.894;10.886;2022-08-18T05:32:11;9.68;;;6.70;;
60700;SDS011;46541;49.894;10.886;2022-08-18T05:35:19;9.07;;;7.15;;
60700;SDS011;46541;49.894;10.886;2022-08-18T05:41:05;10.32;;;7.20;;
60700;SDS011;46541;49.894;10.886;2022-08-18T05:46:17;14.68;;;8.60;;
60700;SDS011;46541;49.894;10.886;2022-08-18T05:48:47;12.73;;;7.47;;
60700;SDS011;46541;49.894;10.886;2022-08-18T05:51:28;9.10;;;7.00;;
60700;SDS011;46541;49.894;10.886;2022-08-18T05:54:00;9.00;;;6.95;;
60700;SDS011;46541;49.894;10.886;2022-08-18T05:56:47;11.82;;;7.68;;
60700;SDS011;46541;49.894;10.886;2022-08-18T05:59:18;9.48;;;7.28;;
60700;SDS011;46541;49.894;10.886;2022-08-18T06:02:15;9.57;;;7.85;;
60700;SDS011;46541;49.894;10.886;2022-08-18T06:04:53;10.65;;;7.80;;
60700;SDS011;46541;49.894;10.886;2022-08-18T06:07:29;8.85;;;7.35;;
60700;SDS011;46541;49.894;10.886;2022-08-18T06:10:01;13.45;;;7.97;;
60700;SDS011;46541;49.894;10.886;2022-08-18T06:12:34;11.15;;;8.63;;
60700;SDS011;46541;49.894;10.886;2022-08-18T06:15:14;13.63;;;8.05;;
60700;SDS011;46541;49.894;10.886;2022-08-18T06:23:18;18.00;;;9.60;;
60700;SDS011;46541;49.894;10.886;2022-08-18T06:29:12;16.35;;;10.45;;
60700;SDS011;46541;49.894;10.886;2022-08-18T06:32:17;15.45;;;9.07;;
60700;SDS011;46541;49.894;10.886;2022-08-18T06:37:33;10.60;;;8.73;;
60700;SDS011;46541;49.894;10.886;2022-08-18T06:40:27;12.93;;;8.63;;
60700;SDS011;46541;49.894;10.886;2022-08-18T06:42:54;11.10;;;8.30;;
60700;SDS011;46541;49.894;10.886;2022-08-18T06:45:30;10.98;;;9.25;;
60700;SDS011;46541;49.894;10.886;2022-08-18T06:48:13;13.07;;;9.02;;
60700;SDS011;46541;49.894;10.886;2022-08-18T06:53:11;10.60;;;9.57;;
60700;SDS011;46541;49.894;10.886;2022-08-18T06:55:53;14.00;;;9.05;;
60700;SDS011;46541;49.894;10.886;2022-08-18T06:58:23;10.55;;;9.00;;
60700;SDS011;46541;49.894;10.886;2022-08-18T07:01:00;10.63;;;8.57;;
60700;SDS011;46541;49.894;10.886;2022-08-18T07:06:30;11.38;;;9.07;;
60700;SDS011;46541;49.894;10.886;2022-08-18T07:12:05;11.50;;;8.68;;
60700;SDS011;46541;49.894;10.886;2022-08-18T07:14:42;10.43;;;8.02;;
60700;SDS011;46541;49.894;10.886;2022-08-18T07:17:13;11.75;;;8.73;;
60700;SDS011;46541;49.894;10.886;2022-08-18T07:20:17;10.40;;;8.43;;
60700;SDS011;46541;49.894;10.886;2022-08-18T07:22:58;10.93;;;9.10;;
60700;SDS011;46541;49.894;10.886;2022-08-18T07:25:40;10.93;;;8.45;;
60700;SDS011;46541;49.894;10.886;2022-08-18T07:28:33;13.07;;;9.40;;
60700;SDS011;46541;49.894;10.886;2022-08-18T07:31:59;10.02;;;9.05;;
60700;SDS011;46541;49.894;10.886;2022-08-18T07:34:18;10.15;;;8.23;;
60700;SDS011;46541;49.894;10.886;2022-08-18T07:36:58;10.75;;;8.80;;
60700;SDS011;46541;49.894;10.886;2022-08-18T07:39:31;11.05;;;8.25;;
60700;SDS011;46541;49.894;10.886;2022-08-18T07:50:22;11.70;;;7.43;;
60700;SDS011;46541;49.894;10.886;2022-08-18T07:56:04;12.32;;;7.60;;
60700;SDS011;46541;49.894;10.886;2022-08-18T07:59:01;7.20;;;6.50;;
60700;SDS011;46541;49.894;10.886;2022-08-18T08:01:47;8.60;;;7.05;;
60700;SDS011;46541;49.894;10.886;2022-08-18T08:04:37;13.05;;;8.05;;
60700;SDS011;46541;49.894;10.886;2022-08-18T08:07:13;13.07;;;8.07;;
60700;SDS011;46541;49.894;10.886;2022-08-18T08:10:23;10.10;;;7.03;;
60700;SDS011;46541;49.894;10.886;2022-08-18T08:13:45;11.00;;;7.97;;
60700;SDS011;46541;49.894;10.886;2022-08-18T08:16:25;10.27;;;8.10;;
60700;SDS011;46541;49.894;10.886;2022-08-18T08:24:19;9.40;;;7.93;;
60700;SDS011;46541;49.894;10.886;2022-08-18T08:32:30;8.27;;;7.35;;
60700;SDS011;46541;49.894;10.886;2022-08-18T08:35:05;8.57;;;6.55;;
60700;SDS011;46541;49.894;10.886;2022-08-18T08:37:57;9.35;;;7.18;;
60700;SDS011;46541;49.894;10.886;2022-08-18T08:41:08;9.43;;;7.40;;
60700;SDS011;46541;49.894;10.886;2022-08-18T08:43:41;8.38;;;6.90;;
60700;SDS011;46541;49.894;10.886;2022-08-18T08:46:14;8.85;;;7.05;;
60700;SDS011;46541;49.894;10.886;2022-08-18T08:48:52;9.45;;;7.93;;
60700;SDS011;46541;49.894;10.886;2022-08-18T08:51:35;9.40;;;8.25;;
60700;SDS011;46541;49.894;10.886;2022-08-18T08:54:16;11.65;;;8.25;;
60700;SDS011;46541;49.894;10.886;2022-08-18T08:56:45;8.65;;;7.75;;
60700;SDS011;46541;49.894;10.886;2022-08-18T08:59:16;9.02;;;7.18;;
60700;SDS011;46541;49.894;10.886;2022-08-18T09:01:50;9.60;;;7.00;;
60700;SDS011;46541;49.894;10.886;2022-08-18T09:05:07;12.18;;;6.82;;
60700;SDS011;46541;49.894;10.886;2022-08-18T09:19:24;27.67;;;18.02;;
60700;SDS011;46541;49.894;10.886;2022-08-18T09:22:03;9.65;;;6.63;;
60700;SDS011;46541;49.894;10.886;2022-08-18T09:24:39;7.75;;;6.85;;
60700;SDS011;46541;49.894;10.886;2022-08-18T09:27:12;6.82;;;6.00;;
60700;SDS011;46541;49.894;10.886;2022-08-18T09:38:47;10.90;;;7.28;;
60700;SDS011;46541;49.894;10.886;2022-08-18T09:41:58;9.55;;;6.97;;
60700;SDS011;46541;49.894;10.886;2022-08-18T09:49:50;7.28;;;6.38;;
60700;SDS011;46541;49.894;10.886;2022-08-18T09:57:29;8.13;;;6.55;;
60700;SDS011;46541;49.894;10.886;2022-08-18T10:22:52;9.65;;;5.97;;
60700;SDS011;46541;49.894;10.886;2022-08-18T10:25:40;8.95;;;5.32;;
60700;SDS011;46541;49.894;10.886;2022-08-18T10:31:18;8.32;;;5.43;;
60700;SDS011;46541;49.894;10.886;2022-08-18T10:34:11;6.20;;;4.93;;
60700;SDS011;46541;49.894;10.886;2022-08-18T10:36:59;6.85;;;5.13;;
60700;SDS011;46541;49.894;10.886;2022-08-18T10:42:12;5.97;;;5.37;;
60700;SDS011;46541;49.894;10.886;2022-08-18T10:45:30;5.85;;;5.35;;
60700;SDS011;46541;49.894;10.886;2022-08-18T10:54:29;7.95;;;5.70;;
60700;SDS011;46541;49.894;10.886;2022-08-18T10:57:35;6.70;;;5.05;;
60700;SDS011;46541;49.894;10.886;2022-08-18T11:00:22;10.00;;;6.00;;
60700;SDS011;46541;49.894;10.886;2022-08-18T11:06:15;7.05;;;5.65;;
60700;SDS011;46541;49.894;10.886;2022-08-18T11:09:05;7.60;;;6.63;;
60700;SDS011;46541;49.894;10.886;2022-08-18T11:11:35;9.88;;;5.07;;
60700;SDS011;46541;49.894;10.886;2022-08-18T11:17:11;7.32;;;6.20;;
60700;SDS011;46541;49.894;10.886;2022-08-18T11:20:06;6.32;;;5.28;;
60700;SDS011;46541;49.894;10.886;2022-08-18T11:22:36;7.80;;;5.68;;
60700;SDS011;46541;49.894;10.886;2022-08-18T11:25:16;8.70;;;6.00;;
60700;SDS011;46541;49.894;10.886;2022-08-18T11:27:50;7.20;;;6.13;;
60700;SDS011;46541;49.894;10.886;2022-08-18T11:30:18;7.03;;;5.65;;
60700;SDS011;46541;49.894;10.886;2022-08-18T11:32:55;13.77;;;6.63;;
60700;SDS011;46541;49.894;10.886;2022-08-18T11:35:32;9.20;;;6.25;;
60700;SDS011;46541;49.894;10.886;2022-08-18T11:38:10;8.38;;;5.53;;
60700;SDS011;46541;49.894;10.886;2022-08-18T11:40:49;11.43;;;6.15;;
60700;SDS011;46541;49.894;10.886;2022-08-18T11:43:37;11.73;;;6.22;;
60700;SDS011;46541;49.894;10.886;2022-08-18T11:48:55;10.80;;;6.07;;
60700;SDS011;46541;49.894;10.886;2022-08-18T11:56:49;8.55;;;6.15;;
60700;SDS011;46541;49.894;10.886;2022-08-18T12:02:16;11.85;;;10.48;;
60700;SDS011;46541;49.894;10.886;2022-08-18T12:04:47;8.93;;;6.88;;
60700;SDS011;46541;49.894;10.886;2022-08-18T12:07:28;6.82;;;6.10;;
60700;SDS011;46541;49.894;10.886;2022-08-18T12:13:10;7.13;;;6.43;;
60700;SDS011;46541;49.894;10.886;2022-08-18T12:16:08;10.00;;;6.05;;
60700;SDS011;46541;49.894;10.886;2022-08-18T12:18:55;9.32;;;6.25;;
60700;SDS011;46541;49.894;10.886;2022-08-18T12:21:22;9.57;;;6.95;;
60700;SDS011;46541;49.894;10.886;2022-08-18T12:23:49;7.88;;;6.75;;
60700;SDS011;46541;49.894;10.886;2022-08-18T12:26:18;7.47;;;6.63;;
60700;SDS011;46541;49.894;10.886;2022-08-18T12:29:04;8.35;;;7.55;;
60700;SDS011;46541;49.894;10.886;2022-08-18T12:31:36;8.38;;;6.88;;
60700;SDS011;46541;49.894;10.886;2022-08-18T12:34:13;8.98;;;6.60;;
60700;SDS011;46541;49.894;10.886;2022-08-18T12:36:42;7.00;;;5.82;;
60700;SDS011;46541;49.894;10.886;2022-08-18T12:39:11;7.55;;;6.70;;
60700;SDS011;46541;49.894;10.886;2022-08-18T12:41:39;7.47;;;6.70;;
60700;SDS011;46541;49.894;10.886;2022-08-18T12:44:08;6.97;;;6.28;;
60700;SDS011;46541;49.894;10.886;2022-08-18T12:46:38;7.50;;;6.35;;
60700;SDS011;46541;49.894;10.886;2022-08-18T12:49:26;8.43;;;6.55;;
60700;SDS011;46541;49.894;10.886;2022-08-18T12:51:54;7.53;;;6.82;;
60700;SDS011;46541;49.894;10.886;2022-08-18T12:54:23;8.65;;;5.80;;
60700;SDS011;46541;49.894;10.886;2022-08-18T12:56:51;7.75;;;6.10;;
60700;SDS011;46541;49.894;10.886;2022-08-18T12:59:21;7.00;;;6.22;;
60700;SDS011;46541;49.894;10.886;2022-08-18T13:01:49;16.45;;;13.30;;
60700;SDS011;46541;49.894;10.886;2022-08-18T13:04:24;12.77;;;7.90;;
60700;SDS011;46541;49.894;10.886;2022-08-18T13:06:53;8.02;;;6.40;;
60700;SDS011;46541;49.894;10.886;2022-08-18T13:09:27;8.05;;;7.25;;
60700;SDS011;46541;49.894;10.886;2022-08-18T13:12:18;8.82;;;6.15;;
60700;SDS011;46541;49.894;10.886;2022-08-18T13:14:45;7.45;;;6.68;;
60700;SDS011;46541;49.894;10.886;2022-08-18T13:17:14;7.90;;;6.32;;
60700;SDS011;46541;49.894;10.886;2022-08-18T13:19:59;9.13;;;8.20;;
60700;SDS011;46541;49.894;10.886;2022-08-18T13:22:33;10.35;;;7.38;;
60700;SDS011;46541;49.894;10.886;2022-08-18T13:25:02;11.80;;;6.28;;
60700;SDS011;46541;49.894;10.886;2022-08-18T13:27:33;7.60;;;6.70;;
60700;SDS011;46541;49.894;10.886;2022-08-18T13:30:04;8.85;;;7.60;;
60700;SDS011;46541;49.894;10.886;2022-08-18T13:32:54;9.63;;;7.35;;
60700;SDS011;46541;49.894;10.886;2022-08-18T13:35:28;9.50;;;6.50;;
60700;SDS011;46541;49.894;10.886;2022-08-18T13:38:09;8.02;;;5.85;;
60700;SDS011;46541;49.894;10.886;2022-08-18T13:40:45;6.90;;;6.20;;
60700;SDS011;46541;49.894;10.886;2022-08-18T13:43:16;6.43;;;5.90;;
60700;SDS011;46541;49.894;10.886;2022-08-18T13:45:48;9.18;;;6.55;;
60700;SDS011;46541;49.894;10.886;2022-08-18T13:48:18;7.35;;;6.65;;
60700;SDS011;46541;49.894;10.886;2022-08-18T13:50:45;7.25;;;6.57;;
60700;SDS011;46541;49.894;10.886;2022-08-18T13:53:17;7.07;;;5.47;;
60700;SDS011;46541;49.894;10.886;2022-08-18T13:55:45;8.23;;;6.45;;
60700;SDS011;46541;49.894;10.886;2022-08-18T13:58:14;10.70;;;6.97;;
60700;SDS011;46541;49.894;10.886;2022-08-18T14:00:46;6.78;;;6.10;;
60700;SDS011;46541;49.894;10.886;2022-08-18T14:03:41;8.70;;;6.70;;
60700;SDS011;46541;49.894;10.886;2022-08-18T14:06:12;7.45;;;6.68;;
60700;SDS011;46541;49.894;10.886;2022-08-18T14:08:47;6.88;;;6.25;;
60700;SDS011;46541;49.894;10.886;2022-08-18T14:11:15;10.82;;;9.65;;
60700;SDS011;46541;49.894;10.886;2022-08-18T14:13:43;10.23;;;7.50;;
60700;SDS011;46541;49.894;10.886;2022-08-18T14:16:10;7.63;;;6.65;;
60700;SDS011;46541;49.894;10.886;2022-08-18T14:18:45;8.73;;;5.90;;
60700;SDS011;46541;49.894;10.886;2022-08-18T14:21:35;10.45;;;6.45;;
60700;SDS011;46541;49.894;10.886;2022-08-18T14:24:29;6.97;;;6.00;;
60700;SDS011;46541;49.894;10.886;2022-08-18T14:27:17;5.90;;;5.25;;
60700;SDS011;46541;49.894;10.886;2022-08-18T14:29:45;6.95;;;6.18;;
60700;SDS011;46541;49.894;10.886;2022-08-18T14:32:17;8.13;;;6.50;;
60700;SDS011;46541;49.894;10.886;2022-08-18T14:34:57;6.65;;;6.00;;
60700;SDS011;46541;49.894;10.886;2022-08-18T14:37:45;7.05;;;6.35;;
60700;SDS011;46541;49.894;10.886;2022-08-18T14:40:13;6.82;;;5.85;;
60700;SDS011;46541;49.894;10.886;2022-08-18T14:42:41;6.63;;;6.03;;
60700;SDS011;46541;49.894;10.886;2022-08-18T14:45:21;6.93;;;6.10;;
60700;SDS011;46541;49.894;10.886;2022-08-18T14:47:59;7.38;;;6.40;;
60700;SDS011;46541;49.894;10.886;2022-08-18T14:50:31;6.80;;;5.45;;
60700;SDS011;46541;49.894;10.886;2022-08-18T14:53:00;9.25;;;5.85;;
60700;SDS011;46541;49.894;10.886;2022-08-18T14:55:27;6.50;;;5.60;;
60700;SDS011;46541;49.894;10.886;2022-08-18T14:57:55;8.88;;;5.55;;
60700;SDS011;46541;49.894;10.886;2022-08-18T15:00:24;6.60;;;5.90;;
60700;SDS011;46541;49.894;10.886;2022-08-18T15:02:52;8.27;;;5.78;;
60700;SDS011;46541;49.894;10.886;2022-08-18T15:05:19;6.57;;;5.30;;
60700;SDS011;46541;49.894;10.886;2022-08-18T15:07:50;7.82;;;6.88;;
60700;SDS011;46541;49.894;10.886;2022-08-18T15:10:18;8.77;;;5.63;;
60700;SDS011;46541;49.894;10.886;2022-08-18T15:12:53;7.85;;;6.20;;
60700;SDS011;46541;49.894;10.886;2022-08-18T15:15:20;6.53;;;5.25;;
60700;SDS011;46541;49.894;10.886;2022-08-18T15:17:50;9.15;;;5.90;;
60700;SDS011;46541;49.894;10.886;2022-08-18T15:20:18;10.10;;;7.63;;
60700;SDS011;46541;49.894;10.886;2022-08-18T15:22:57;11.23;;;5.57;;
60700;SDS011;46541;49.894;10.886;2022-08-18T15:25:53;5.97;;;5.35;;
60700;SDS011;46541;49.894;10.886;2022-08-18T15:28:22;8.85;;;5.70;;
60700;SDS011;46541;49.894;10.886;2022-08-18T15:30:52;6.32;;;5.72;;
60700;SDS011;46541;49.894;10.886;2022-08-18T15:33:39;9.40;;;5.80;;
60700;SDS011;46541;49.894;10.886;2022-08-18T15:36:07;8.20;;;6.05;;
60700;SDS011;46541;49.894;10.886;2022-08-18T15:38:35;11.02;;;6.32;;
60700;SDS011;46541;49.894;10.886;2022-08-18T15:41:03;12.13;;;6.15;;
60700;SDS011;46541;49.894;10.886;2022-08-18T15:43:34;6.18;;;5.57;;
60700;SDS011;46541;49.894;10.886;2022-08-18T15:46:11;8.68;;;6.20;;
60700;SDS011;46541;49.894;10.886;2022-08-18T15:48:42;6.65;;;5.82;;
60700;SDS011;46541;49.894;10.886;2022-08-18T15:51:09;6.45;;;5.80;;
60700;SDS011;46541;49.894;10.886;2022-08-18T15:53:37;8.90;;;5.22;;
60700;SDS011;46541;49.894;10.886;2022-08-18T15:56:11;8.95;;;6.50;;
60700;SDS011;46541;49.894;10.886;2022-08-18T15:58:39;8.65;;;6.55;;
60700;SDS011;46541;49.894;10.886;2022-08-18T16:01:08;7.60;;;5.85;;
60700;SDS011;46541;49.894;10.886;2022-08-18T16:03:55;8.10;;;6.60;;
60700;SDS011;46541;49.894;10.886;2022-08-18T16:06:23;23.10;;;17.73;;
60700;SDS011;46541;49.894;10.886;2022-08-18T16:08:53;30.83;;;23.60;;
60700;SDS011;46541;49.894;10.886;2022-08-18T16:11:19;11.70;;;7.75;;
60700;SDS011;46541;49.894;10.886;2022-08-18T16:13:55;7.18;;;6.45;;
60700;SDS011;46541;49.894;10.886;2022-08-18T16:16:26;7.55;;;5.93;;
60700;SDS011;46541;49.894;10.886;2022-08-18T16:19:01;15.75;;;13.35;;
60700;SDS011;46541;49.894;10.886;2022-08-18T16:21:29;19.88;;;15.20;;
60700;SDS011;46541;49.894;10.886;2022-08-18T16:23:56;7.68;;;6.13;;
60700;SDS011;46541;49.894;10.886;2022-08-18T16:26:23;9.32;;;6.60;;
60700;SDS011;46541;49.894;10.886;2022-08-18T16:28:50;8.77;;;6.32;;
60700;SDS011;46541;49.894;10.886;2022-08-18T16:31:19;8.27;;;6.20;;
60700;SDS011;46541;49.894;10.886;2022-08-18T16:33:52;8.35;;;6.43;;
60700;SDS011;46541;49.894;10.886;2022-08-18T16:36:20;8.50;;;6.05;;
60700;SDS011;46541;49.894;10.886;2022-08-18T16:38:51;9.65;;;6.55;;
60700;SDS011;46541;49.894;10.886;2022-08-18T16:41:19;9.48;;;6.65;;
60700;SDS011;46541;49.894;10.886;2022-08-18T16:43:46;7.55;;;5.65;;
60700;SDS011;46541;49.894;10.886;2022-08-18T16:46:15;8.63;;;6.32;;
60700;SDS011;46541;49.894;10.886;2022-08-18T16:48:44;8.07;;;6.05;;
60700;SDS011;46541;49.894;10.886;2022-08-18T16:51:15;10.55;;;6.70;;
60700;SDS011;46541;49.894;10.886;2022-08-18T16:53:44;8.70;;;6.95;;
60700;SDS011;46541;49.894;10.886;2022-08-18T16:56:13;9.73;;;6.45;;
60700;SDS011;46541;49.894;10.886;2022-08-18T16:58:46;8.40;;;6.45;;
60700;SDS011;46541;49.894;10.886;2022-08-18T17:04:19;8.77;;;6.82;;
60700;SDS011;46541;49.894;10.886;2022-08-18T17:06:48;7.82;;;6.22;;
60700;SDS011;46541;49.894;10.886;2022-08-18T17:09:16;7.82;;;5.97;;
60700;SDS011;46541;49.894;10.886;2022-08-18T17:11:44;9.40;;;7.07;;
60700;SDS011;46541;49.894;10.886;2022-08-18T17:14:18;7.50;;;6.72;;
60700;SDS011;46541;49.894;10.886;2022-08-18T17:16:53;7.47;;;6.30;;
60700;SDS011;46541;49.894;10.886;2022-08-18T17:19:21;9.75;;;6.68;;
60700;SDS011;46541;49.894;10.886;2022-08-18T17:21:49;8.55;;;6.78;;
60700;SDS011;46541;49.894;10.886;2022-08-18T17:24:16;8.48;;;6.50;;
60700;SDS011;46541;49.894;10.886;2022-08-18T17:30:04;10.07;;;7.15;;
60700;SDS011;46541;49.894;10.886;2022-08-18T17:35:17;8.88;;;6.35;;
60700;SDS011;46541;49.894;10.886;2022-08-18T17:38:15;9.00;;;7.20;;
60700;SDS011;46541;49.894;10.886;2022-08-18T17:40:53;7.43;;;6.65;;